Latest Weather Observations for Samuel Hill

IDQ60801

Issued at 8:35 pm EST Thursday 23 October 2014 (issued every 30 minutes, with the page automatically refreshed every 10 minutes)

About weather observations | Map of weather stations | Latest weather observations for QLD | Other Formats
Station Details ID: 033308 Name: SAMUEL HILL AERO Lat: -22.74 Lon: 150.66 Height: 31.0 m
Data from the previous 72 hours. | See also: Recent months at Samuel Hill
Date/Time
EST
Temp
°C
App
Temp
°C
Dew
Point
Rel
Hum
%
Delta-T
°C
Wind Press
QNH
hPa
Press
MSL
hPa
Rain
since 9 am
mm
Dir
 
Spd
km/h
Gust
km/h
Spd
kts
Gust
kts
23/08:30pm 14.5 15.1 12.0 85 1.3 WNW 0 6 0 3 1020.4 1020.3 0.0
23/08:00pm 15.7 16.6 13.0 84 1.5 NW 0 0 0 0 1019.9 1019.8 0.0
23/07:30pm 16.5 17.3 12.7 78 2.1 CALM 0 6 0 3 1019.5 1019.4 0.0
23/07:00pm 17.9 18.4 12.8 72 2.8 E 2 6 1 3 1019.1 1019.0 0.0
23/06:30pm 19.6 19.2 14.2 71 3.1 E 9 11 5 6 1018.9 1018.8 0.0
23/06:00pm 21.0 20.3 14.4 66 3.8 E 11 17 6 9 1018.7 1018.6 0.0
23/05:30pm 22.2 21.5 14.3 61 4.6 ENE 11 22 6 12 1018.5 1018.4 0.0
23/05:00pm 23.0 21.9 14.3 58 5.1 ENE 13 20 7 11 1018.2 1018.1 0.0
23/04:30pm 23.7 21.8 14.1 55 5.6 ENE 17 24 9 13 1017.9 1017.8 0.0
23/04:00pm 24.6 24.3 14.4 53 6.0 E 9 17 5 9 1017.7 1017.6 0.0
23/03:30pm 23.9 21.7 13.4 51 6.1 ESE 17 26 9 14 1017.9 1017.8 0.0
23/03:00pm 24.3 22.5 14.4 54 5.9 ESE 17 30 9 16 1018.1 1018.0 0.0
23/02:30pm 25.2 23.5 14.6 51 6.3 E 17 26 9 14 1017.9 1017.8 0.0
23/02:00pm 25.3 23.0 12.9 46 7.2 ESE 17 28 9 15 1018.1 1018.0 0.0
23/01:30pm 24.4 21.4 13.6 51 6.3 SSE 22 28 12 15 1018.4 1018.3 0.0
23/01:00pm 25.0 22.3 12.9 47 7.0 ESE 19 28 10 15 1018.8 1018.7 0.0
23/12:30pm 25.4 23.6 14.5 51 6.5 E 17 30 9 16 1019.2 1019.1 0.0
23/12:00pm 24.8 22.5 14.0 51 6.4 E 19 30 10 16 1019.5 1019.4 0.0
23/11:30am 25.3 23.4 14.1 50 6.6 SE 17 26 9 14 1019.8 1019.7 0.0
23/11:00am 24.5 21.9 13.7 51 6.3 ESE 20 37 11 20 1020.2 1020.1 0.0
23/10:30am 24.2 22.2 14.0 53 6.0 E 17 30 9 16 1020.6 1020.5 0.0
23/10:00am 24.1 21.1 12.7 49 6.5 ESE 20 30 11 16 1020.8 1020.7 0.0
23/09:30am 23.6 21.1 13.5 53 5.9 ESE 19 32 10 17 1021.0 1020.9 0.0
23/09:00am 23.7 21.5 13.3 52 6.0 ESE 17 28 9 15 1021.1 1021.0 0.0
23/08:30am 22.9 20.4 13.4 55 5.5 ESE 19 35 10 19 1021.1 1021.0 0.0
23/08:00am 22.7 20.4 14.0 58 5.1 SE 19 28 10 15 1021.0 1020.9 0.0
23/07:30am 21.8 21.6 14.7 64 4.2 SSE 9 13 5 7 1020.9 1020.8 0.0
23/07:00am 19.7 19.7 14.3 71 3.1 SSE 7 11 4 6 1020.7 1020.6 0.0
23/06:30am 16.9 18.3 14.4 85 1.4 CALM 0 0 0 0 1020.7 1020.6 0.0
23/06:00am 14.1 15.0 13.0 93 0.6 CALM 0 0 0 0 1020.5 1020.4 0.0
23/05:30am 12.2 12.5 10.8 91 0.7 CALM 0 6 0 3 1020.2 1020.1 0.0
23/05:00am 12.6 12.0 11.7 94 0.5 S 6 11 3 6 1020.1 1020.0 0.0
23/04:30am 11.7 11.1 10.3 91 0.7 SSW 4 7 2 4 1019.9 1019.8 0.0
23/04:00am 11.9 12.0 10.3 90 0.8 CALM 0 0 0 0 1019.8 1019.7 0.0
23/03:30am 12.6 13.0 11.2 91 0.7 CALM 0 0 0 0 1019.8 1019.7 0.0
23/03:00am 12.8 13.2 11.4 91 0.7 CALM 0 0 0 0 1019.9 1019.8 0.0
23/02:30am 12.8 13.1 11.0 89 0.9 CALM 0 2 0 1 1020.1 1020.0 0.0
23/02:00am 13.2 13.6 11.3 88 1.0 CALM 0 0 0 0 1020.2 1020.1 0.0
23/01:30am 14.5 15.4 13.0 91 0.8 CALM 0 0 0 0 1020.6 1020.5 0.0
23/01:00am 14.6 15.4 12.5 87 1.1 W 0 0 0 0 1020.9 1020.8 0.0
23/12:30am 15.5 16.5 13.2 86 1.3 CALM 0 4 0 2 1021.3 1021.2 0.0
23/12:00am 16.2 16.1 14.0 87 1.2 W 7 9 4 5 1021.5 1021.4 0.0
 
Date/Time
EST
Temp
°C
App
Temp
°C
Dew
Point
Rel
Hum
%
Delta-T
°C
Wind Press
QNH
hPa
Press
MSL
hPa
Rain
since 9 am
mm
Dir
 
Spd
km/h
Gust
km/h
Spd
kts
Gust
kts
22/11:30pm 16.5 16.5 14.2 86 1.3 W 7 9 4 5 1021.7 1021.6 0.0
22/11:00pm 18.2 18.4 14.1 77 2.3 SE 6 9 3 5 1021.7 1021.6 0.0
22/10:30pm 19.3 19.4 15.4 78 2.3 ESE 9 15 5 8 1021.7 1021.6 0.0
22/10:00pm 19.7 19.8 15.4 76 2.5 ESE 9 13 5 7 1021.6 1021.5 0.0
22/09:30pm 19.9 19.5 15.3 75 2.7 ESE 11 19 6 10 1021.4 1021.3 0.0
22/09:00pm 19.5 19.6 15.6 78 2.3 ESE 9 15 5 8 1021.4 1021.3 0.0
22/08:30pm 19.4 19.2 14.6 74 2.8 ESE 9 17 5 9 1021.2 1021.1 0.0
22/08:00pm 19.5 19.8 15.0 75 2.6 SE 7 11 4 6 1021.0 1020.9 0.0
22/07:30pm 19.4 19.4 14.2 72 3.0 SE 7 13 4 7 1020.9 1020.8 0.0
22/07:00pm 20.4 20.1 14.5 69 3.4 ESE 9 17 5 9 1020.7 1020.6 0.0
22/06:30pm 20.7 19.9 13.9 65 3.9 E 11 19 6 10 1020.6 1020.5 0.0
22/06:00pm 21.2 19.8 13.4 61 4.5 E 13 20 7 11 1020.3 1020.2 0.0
22/05:30pm 22.1 19.7 12.6 55 5.4 E 17 28 9 15 1020.2 1020.1 0.0
22/05:00pm 22.5 18.4 12.7 54 5.6 ESE 26 41 14 22 1020.0 1019.9 0.0
22/04:30pm 23.4 20.1 12.7 51 6.1 E 22 33 12 18 1019.8 1019.7 0.0
22/04:00pm 23.8 20.5 12.8 50 6.3 ESE 22 35 12 19 1019.6 1019.5 0.0
22/03:30pm 23.7 20.7 13.6 53 5.9 ESE 22 33 12 18 1019.6 1019.5 0.0
22/03:00pm 23.7 20.6 13.3 52 6.0 ESE 22 33 12 18 1019.7 1019.6 0.0
22/02:30pm 24.4 21.6 13.3 50 6.5 ESE 20 32 11 17 1019.8 1019.7 0.0
22/02:00pm 24.2 20.6 13.1 50 6.4 ESE 24 35 13 19 1020.1 1020.0 0.0
22/01:30pm 24.4 21.0 14.8 55 5.7 ESE 26 39 14 21 1020.5 1020.4 0.0
22/01:00pm 24.3 21.6 14.7 55 5.7 ESE 22 37 12 20 1020.8 1020.7 0.0
22/12:30pm 25.4 23.0 14.5 51 6.5 ESE 20 35 11 19 1021.1 1021.0 0.0
22/12:00pm 25.4 22.3 14.5 51 6.5 ESE 24 37 13 20 1021.7 1021.6 0.0
22/11:30am 24.4 21.5 13.9 52 6.2 SE 22 33 12 18 1022.0 1021.9 0.0
22/11:00am 23.7 21.8 15.2 59 5.1 SE 19 37 10 20 1022.4 1022.3 0.0
22/10:30am 23.4 20.8 14.9 59 5.1 SE 22 35 12 19 1022.4 1022.3 0.0
22/10:00am 24.3 22.3 15.5 58 5.3 SE 20 32 11 17 1022.6 1022.5 0.0
22/09:30am 24.0 20.3 12.6 49 6.5 ESE 24 37 13 20 1022.7 1022.6 0.0
22/09:00am 23.2 20.0 15.3 61 4.7 SE 26 39 14 21 1022.8 1022.7 0.0
22/08:30am 24.5 22.9 16.0 59 5.2 ESE 19 32 10 17 1022.8 1022.7 0.0
22/08:00am 22.7 20.3 15.5 64 4.3 ESE 22 35 12 19 1022.7 1022.6 0.0
22/07:30am 22.6 21.0 16.4 68 3.8 ESE 20 35 11 19 1022.6 1022.5 0.0
22/07:00am 21.4 21.2 16.6 74 2.9 ESE 13 19 7 10 1022.3 1022.2 0.0
22/06:30am 20.8 20.8 17.2 80 2.2 SE 13 20 7 11 1022.0 1021.9 0.0
22/06:00am 19.1 20.2 17.2 89 1.2 SSE 7 13 4 7 1022.0 1021.9 0.0
22/05:30am 18.5 19.5 16.8 90 1.0 SSE 7 11 4 6 1021.6 1021.5 0.0
22/05:00am 18.5 19.5 16.8 90 1.0 S 7 9 4 5 1021.2 1021.1 0.0
22/04:30am 18.8 19.7 16.6 87 1.3 ESE 7 9 4 5 1021.0 1020.9 0.0
22/04:02am 19.0 19.3 17.0 88 1.2 SE 11 17 6 9 1021.0 1020.9 0.0
22/04:00am 19.0 19.3 17.0 88 1.2 SE 11 15 6 8 1021.1 1021.0 0.0
22/03:51am 19.0 19.7 17.0 88 1.2 SE 9 17 5 9 1021.0 1020.9 0.0
22/03:30am 18.7 19.5 16.3 86 1.4 SSE 7 11 4 6 1021.0 1020.9 0.0
22/03:00am 19.3 20.2 16.5 84 1.7 SSE 7 9 4 5 1021.2 1021.1 0.0
22/02:30am 19.4 19.9 16.6 84 1.7 SE 9 13 5 7 1021.5 1021.4 0.0
22/02:00am 19.4 19.0 16.1 81 2.0 SE 13 17 7 9 1021.6 1021.5 0.0
22/01:30am 21.0 20.3 15.3 70 3.4 E 13 17 7 9 1022.0 1021.9 0.0
22/01:00am 21.3 20.2 15.4 69 3.5 E 15 22 8 12 1022.4 1022.3 0.0
22/12:30am 21.1 20.4 15.4 70 3.4 E 13 24 7 13 1022.8 1022.7 0.0
22/12:00am 21.2 20.8 15.3 69 3.5 E 11 17 6 9 1023.3 1023.2 0.0
 
Date/Time
EST
Temp
°C
App
Temp
°C
Dew
Point
Rel
Hum
%
Delta-T
°C
Wind Press
QNH
hPa
Press
MSL
hPa
Rain
since 9 am
mm
Dir
 
Spd
km/h
Gust
km/h
Spd
kts
Gust
kts
21/11:30pm 21.1 20.5 14.5 66 3.9 E 11 19 6 10 1023.5 1023.4 0.0
21/11:00pm 21.2 19.4 14.4 65 4.0 E 17 30 9 16 1023.7 1023.6 0.0
21/10:30pm 21.2 19.5 14.6 66 3.9 ESE 17 26 9 14 1024.0 1023.9 0.0
21/10:00pm 20.9 19.2 14.8 68 3.6 ESE 17 26 9 14 1024.0 1023.9 0.0
21/09:30pm 20.9 19.0 14.1 65 4.0 ESE 17 32 9 17 1024.0 1023.9 0.0
21/09:00pm 20.7 19.5 14.1 66 3.8 ESE 13 30 7 16 1024.0 1023.9 0.0
21/08:30pm 20.6 19.4 14.0 66 3.8 ESE 13 22 7 12 1023.8 1023.7 0.0
21/08:00pm 20.7 18.5 13.2 62 4.3 ESE 17 35 9 19 1023.6 1023.5 0.0
21/07:30pm 20.3 18.9 13.3 64 4.0 ESE 13 22 7 12 1023.3 1023.2 0.0
21/07:00pm 20.4 19.1 13.6 65 3.9 ESE 13 22 7 12 1023.1 1023.0 0.0
21/06:30pm 20.3 19.0 13.7 66 3.8 ESE 13 19 7 10 1022.9 1022.8 0.0
21/06:00pm 21.0 19.7 13.7 63 4.2 ESE 13 28 7 15 1022.5 1022.4 0.0
21/05:30pm 21.8 18.9 12.9 57 5.1 ESE 20 32 11 17 1022.3 1022.2 0.0
21/05:00pm 22.6 20.0 13.7 57 5.2 ESE 20 35 11 19 1021.9 1021.8 0.0
21/04:30pm 23.1 20.0 13.3 54 5.7 ESE 22 37 12 20 1021.6 1021.5 0.0
21/04:00pm 23.7 20.9 13.3 52 6.0 ESE 20 35 11 19 1021.4 1021.3 0.0
21/03:30pm 24.5 21.7 13.1 49 6.6 ESE 20 32 11 17 1021.4 1021.3 0.0
21/03:00pm 24.6 20.7 12.2 46 7.1 ESE 24 35 13 19 1021.5 1021.4 0.0
21/02:30pm 25.0 22.1 13.9 50 6.5 ESE 22 33 12 18 1021.7 1021.6 0.0
21/02:00pm 25.0 22.6 13.9 50 6.5 E 19 28 10 15 1021.8 1021.7 0.0
21/01:30pm 24.6 20.8 13.5 50 6.5 SE 26 39 14 21 1022.1 1022.0 0.0
21/01:00pm 24.7 21.3 13.6 50 6.5 ESE 24 48 13 26 1022.5 1022.4 0.0
21/12:43pm 24.7 20.7 14.2 52 6.2 ESE 28 48 15 26 1022.7 1022.6 0.0
21/12:30pm 25.1 22.1 14.8 52 6.2 ESE 24 39 13 21 1022.8 1022.7 0.0
21/12:00pm 24.1 20.5 14.2 54 5.8 ESE 26 39 14 21 1023.2 1023.1 0.0
21/11:30am 24.0 19.8 13.5 52 6.1 SE 28 46 15 25 1023.5 1023.4 0.0
21/11:28am 24.8 20.8 14.0 51 6.4 SE 28 46 15 25 1023.5 1023.4 0.0
21/11:00am 24.4 21.8 14.8 55 5.7 ESE 22 37 12 20 1023.8 1023.7 0.0
21/10:30am 24.4 19.5 12.4 47 6.9 SE 30 50 16 27 1024.0 1023.9 0.0
21/10:24am 24.9 20.4 12.5 46 7.1 SE 28 46 15 25 1024.0 1023.9 0.0
21/10:00am 24.8 20.7 13.7 50 6.5 ESE 28 43 15 23 1023.9 1023.8 0.0
21/09:30am 24.5 20.5 13.1 49 6.6 ESE 26 43 14 23 1024.0 1023.9 0.0
21/09:00am 24.9 22.2 13.5 49 6.6 E 20 37 11 20 1024.1 1024.0 0.0
21/08:30am 23.0 19.7 14.0 57 5.3 ESE 24 39 13 21 1023.8 1023.7 0.0
21/08:00am 23.3 19.6 13.8 55 5.5 ESE 26 43 14 23 1023.6 1023.5 0.0
21/07:30am 23.2 20.7 14.2 57 5.3 ESE 20 41 11 22 1023.3 1023.2 0.0
21/07:00am 22.5 21.0 15.4 64 4.2 ESE 17 26 9 14 1023.1 1023.0 0.0
21/06:30am 20.6 20.7 15.6 73 3.0 SE 9 17 5 9 1022.6 1022.5 0.0
21/06:00am 20.3 19.3 14.7 70 3.3 SE 13 19 7 10 1022.3 1022.2 0.0
21/05:30am 20.8 19.0 14.5 67 3.7 ESE 17 26 9 14 1021.9 1021.8 0.0
21/05:00am 19.5 18.7 15.2 76 2.5 ESE 13 22 7 12 1021.6 1021.5 0.0
21/04:30am 18.2 18.1 14.9 81 1.9 ESE 9 15 5 8 1021.2 1021.1 0.0
21/04:00am 14.8 14.7 13.8 94 0.6 SSE 7 13 4 7 1021.3 1021.2 0.0
21/03:30am 13.3 13.9 12.0 92 0.7 CALM 0 0 0 0 1021.2 1021.1 0.0
21/03:00am 13.1 13.7 11.8 92 0.7 CALM 0 0 0 0 1021.1 1021.0 0.0
21/02:30am 13.1 13.3 12.0 93 0.6 W 2 7 1 4 1021.2 1021.1 0.0
21/02:00am 12.8 12.6 11.7 93 0.6 WSW 4 9 2 5 1021.2 1021.1 0.0
21/01:30am 12.7 11.6 11.8 94 0.5 WSW 9 11 5 6 1021.5 1021.4 0.0
21/01:00am 12.1 12.4 10.8 92 0.7 CALM 0 0 0 0 1021.8 1021.7 0.0
21/12:30am 12.3 12.6 10.9 91 0.7 CALM 0 0 0 0 1022.4 1022.3 0.0
21/12:00am 12.8 13.3 11.7 93 0.6 CALM 0 2 0 1 1022.9 1022.8 0.0
 
Date/Time
EST
Temp
°C
App
Temp
°C
Dew
Point
Rel
Hum
%
Delta-T
°C
Wind Press
QNH
hPa
Press
MSL
hPa
Rain
since 9 am
mm
Dir
 
Spd
km/h
Gust
km/h
Spd
kts
Gust
kts
20/11:30pm 12.2 12.4 10.6 90 0.8 CALM 0 7 0 4 1023.3 1023.2 0.0
20/11:00pm 12.6 12.8 10.7 88 1.0 CALM 0 0 0 0 1023.6 1023.5 0.0
20/10:30pm 13.1 13.4 11.0 87 1.1 CALM 0 6 0 3 1023.8 1023.7 0.0
20/10:00pm 14.5 14.9 12.5 88 1.1 SW 2 7 1 4 1023.8 1023.7 0.0
20/09:30pm 14.5 14.8 12.2 86 1.2 SE 2 6 1 3 1023.7 1023.6 0.0
20/09:00pm 16.0 15.9 13.3 84 1.5 SE 6 7 3 4 1023.5 1023.4 0.0

Other Formats:

Comma delimited format used in spreadsheet applications
http://www.bom.gov.au/fwo/IDQ60801/IDQ60801.94370.axf

JavaScript Object Notation format (JSON) in row-major order
http://www.bom.gov.au/fwo/IDQ60801/IDQ60801.94370.json